Latest Weather Observations for East Sale Airport

IDV60801

Issued at 3:02 pm EDT Sunday 17 February 2019 (issued every 10 minutes, with the page automatically refreshed every 10 minutes)

About weather observations | Map of weather stations | Latest weather observations for VIC | Other Formats
Station Details ID: 085314 Name: EAST SALE AIRPORT Lat: -38.10 Lon: 147.14 Height: 5.3 m
Data from the previous 72 hours. | See also: Recent months at East Sale Airport
Date/Time
EDT
Temp
°C
App
Temp
°C
Dew
Point
°C
Rel
Hum
%
Delta-T
°C
Wind Press
QNH
hPa
Press
MSL
hPa
Rain since
9am
mm
Dir  Spd
km/h
Gust
km/h
Spd
kts
Gust
kts
17/03:00pm 23.7 24.0 17.9 70 3.6 E 13 20 7 11 1010.7 - 0.0
17/02:30pm 23.6 23.2 17.1 67 4.0 E 15 19 8 10 1010.9 - 0.0
17/02:00pm 24.0 24.3 16.0 61 4.9 ENE 9 13 5 7 1011.0 - 0.0
17/01:30pm 24.0 24.7 16.0 61 4.9 NE 7 13 4 7 1011.3 - 0.0
17/01:00pm 23.8 25.0 16.8 65 4.3 SSE 6 11 3 6 1011.5 - 0.0
17/12:30pm 23.1 23.6 16.6 67 4.0 E 9 13 5 7 1011.6 - 0.0
17/12:00pm 23.3 24.0 17.1 68 3.8 ESE 9 13 5 7 1012.1 - 0.0
17/11:30am 22.8 23.5 17.0 70 3.6 ESE 9 17 5 9 1012.3 - 0.0
17/11:00am 21.8 22.2 16.3 71 3.3 E 9 20 5 11 1012.5 - 0.0
17/10:35am 21.2 21.1 16.0 72 3.1 ENE 11 17 6 9 1012.6 - 0.0
17/10:30am 21.3 21.4 16.5 74 2.9 ENE 11 15 6 8 1012.6 - 0.0
17/10:00am 20.3 21.2 16.1 77 2.5 E 6 9 3 5 1012.9 - 0.0
17/09:30am 19.7 20.8 16.7 83 1.8 NE 6 9 3 5 1013.0 - 0.0
17/09:00am 17.9 20.0 17.3 96 0.4 NNW 2 7 1 4 1013.1 - 0.0
17/08:30am 17.2 18.2 16.9 98 0.2 N 7 7 4 4 1013.2 - 0.0
17/08:08am 16.7 18.9 16.4 98 0.2 CALM 0 6 0 3 1013.1 - 0.0
17/08:00am 16.2 17.4 15.9 98 0.2 N 4 7 2 4 1013.1 - 0.0
17/07:47am 16.1 16.9 15.8 98 0.2 N 6 7 3 4 1013.0 - 0.0
17/07:35am 16.1 17.6 15.8 98 0.2 W 2 7 1 4 1013.0 - 0.0
17/07:30am 16.2 17.8 15.9 98 0.2 SW 2 6 1 3 1013.0 - 0.0
17/07:00am 15.7 17.5 15.4 98 0.2 CALM 0 0 0 0 1012.8 - 0.0
17/06:30am 15.0 16.5 14.7 98 0.2 CALM 0 0 0 0 1012.7 - 0.0
17/06:00am 14.2 15.4 13.7 97 0.3 CALM 0 0 0 0 1012.6 - 0.0
17/05:43am 14.1 15.2 13.6 97 0.3 CALM 0 6 0 3 1012.6 - 0.0
17/05:33am 14.0 14.7 13.5 97 0.3 WNW 2 7 1 4 1012.6 - 0.0
17/05:30am 13.9 15.0 13.4 97 0.3 CALM 0 0 0 0 1012.6 - 0.0
17/05:08am 14.2 15.0 13.7 97 0.3 NW 2 6 1 3 1012.6 - 0.0
17/05:07am 14.2 15.0 13.7 97 0.3 NW 2 6 1 3 1012.6 - 0.0
17/05:00am 14.4 14.5 13.9 97 0.3 NW 6 6 3 3 1012.7 - 0.0
17/04:42am 14.9 15.2 14.4 97 0.3 SW 6 7 3 4 1012.8 - 0.0
17/04:30am 15.0 15.3 14.5 97 0.3 SW 6 7 3 4 1012.8 - 0.0
17/04:00am 15.3 16.8 14.7 96 0.3 CALM 0 0 0 0 1013.2 - 0.0
17/03:30am 15.7 17.4 15.1 96 0.3 CALM 0 0 0 0 1013.4 - 0.0
17/03:25am 15.7 17.4 15.1 96 0.3 CALM 0 0 0 0 1013.4 - 0.0
17/03:21am 15.7 17.4 15.1 96 0.3 CALM 0 0 0 0 1013.5 - 0.0
17/03:08am 15.4 16.9 14.6 95 0.5 CALM 0 0 0 0 1013.6 - 0.0
17/03:00am 15.5 17.0 14.7 95 0.5 CALM 0 0 0 0 1013.6 - 0.0
17/02:30am 15.6 16.3 14.5 93 0.6 W 4 7 2 4 1014.1 - 0.0
17/02:00am 16.7 18.6 15.7 94 0.6 CALM 0 0 0 0 1014.4 - 0.0
17/01:30am 16.9 18.5 15.9 94 0.6 N 2 6 1 3 1014.6 - 0.0
17/01:00am 16.6 17.3 15.5 93 0.6 NNW 6 7 3 4 1014.9 - 0.0
17/12:30am 17.5 18.7 16.0 91 0.9 SSW 4 7 2 4 1015.4 - 0.0
17/12:00am 18.1 20.3 16.6 91 0.9 CALM 0 0 0 0 1015.6 - 0.0
 
Date/Time
EDT
Temp
°C
App
Temp
°C
Dew
Point
°C
Rel
Hum
%
Delta-T
°C
Wind Press
QNH
hPa
Press
MSL
hPa
Rain since
9am
mm
Dir  Spd
km/h
Gust
km/h
Spd
kts
Gust
kts
16/11:30pm 18.1 20.2 16.3 89 1.1 CALM 0 0 0 0 1015.9 - 0.0
16/11:00pm 18.2 19.1 16.0 87 1.3 S 6 7 3 4 1016.1 - 0.0
16/10:30pm 18.8 19.6 16.4 86 1.4 S 7 13 4 7 1016.4 - 0.0
16/10:00pm 18.9 19.6 16.1 84 1.7 SE 7 9 4 5 1016.4 - 0.0
16/09:30pm 19.3 20.1 16.3 83 1.8 ESE 7 11 4 6 1016.2 - 0.0
16/09:00pm 19.5 19.5 16.2 81 2.0 ESE 11 13 6 7 1015.9 - 0.0
16/08:30pm 19.9 19.9 16.3 80 2.2 SE 11 15 6 8 1015.6 - 0.0
16/08:00pm 20.7 19.3 16.5 77 2.5 SE 19 22 10 12 1015.2 - 0.0
16/07:30pm 21.7 20.8 16.9 74 2.9 SSE 17 22 9 12 1015.1 - 0.0
16/07:00pm 23.0 21.7 17.2 70 3.6 SSE 20 28 11 15 1014.6 - 0.0
16/06:30pm 23.5 20.9 16.8 66 4.1 SSE 26 33 14 18 1014.2 - 0.0
16/06:00pm 24.1 21.5 16.9 64 4.4 SSE 26 33 14 18 1014.0 - 0.0
16/05:30pm 25.1 22.5 16.8 60 5.1 S 26 35 14 19 1013.6 - 0.0
16/05:00pm 26.6 24.4 16.8 55 6.1 SSE 24 33 13 18 1013.5 - 0.0
16/04:30pm 26.8 23.6 16.4 53 6.4 SE 28 39 15 21 1013.6 - 0.0
16/04:00pm 26.8 24.0 16.4 53 6.4 SSE 26 35 14 19 1013.6 - 0.0
16/03:30pm 26.9 24.3 16.8 54 6.3 SSE 26 35 14 19 1013.8 - 0.0
16/03:00pm 28.2 25.5 16.5 49 7.3 SE 26 35 14 19 1013.9 - 0.0
16/02:30pm 28.0 25.9 16.3 49 7.2 SSE 22 30 12 16 1014.5 - 0.0
16/02:00pm 29.1 27.2 17.6 50 7.3 ESE 24 35 13 19 1014.6 - 0.0
16/01:30pm 29.3 29.2 13.9 39 9.2 WNW 7 13 4 7 1014.8 - 0.0
16/01:00pm 27.9 28.0 15.5 46 7.6 N 9 13 5 7 1015.4 - 0.0
16/12:30pm 26.1 26.9 16.4 55 6.0 W 7 13 4 7 1016.0 - 0.0
16/12:00pm 25.1 25.9 16.3 58 5.4 N 7 13 4 7 1016.5 - 0.0
16/11:30am 23.8 25.1 16.1 62 4.7 NW 4 9 2 5 1017.1 - 0.0
16/11:00am 22.8 23.9 16.6 68 3.8 NNE 6 9 3 5 1017.4 - 0.0
16/10:30am 21.1 21.6 15.6 71 3.3 WSW 7 11 4 6 1017.7 - 0.0
16/10:00am 20.3 20.6 16.1 77 2.5 NW 9 11 5 6 1018.0 - 0.0
16/09:30am 19.7 20.6 16.0 79 2.2 W 6 9 3 5 1018.2 - 0.0
16/09:00am 18.2 18.7 15.5 84 1.6 WNW 7 11 4 6 1018.4 - 0.0
16/08:30am 16.6 16.1 15.0 90 0.9 NW 11 13 6 7 1018.5 - 0.0
16/08:00am 15.3 15.0 14.3 94 0.6 NW 9 11 5 6 1018.5 - 0.0
16/07:30am 14.9 14.5 14.1 95 0.5 NW 9 11 5 6 1018.6 - 0.0
16/07:00am 14.2 13.9 13.4 95 0.4 NNW 7 11 4 6 1018.5 - 0.0
16/06:30am 15.0 15.1 13.9 93 0.6 WNW 6 7 3 4 1018.4 - 0.0
16/06:24am 15.0 15.4 13.7 92 0.7 W 4 6 2 3 1018.4 - 0.0
16/06:00am 16.1 16.5 14.8 92 0.7 W 6 7 3 4 1018.5 - 0.0
16/05:46am 16.2 16.5 14.9 92 0.7 WNW 7 9 4 5 1018.7 - 0.0
16/05:35am 16.3 16.7 14.7 90 0.9 W 6 7 3 4 1018.7 - 0.0
16/05:30am 16.3 16.7 14.7 90 0.9 W 6 6 3 3 1018.6 - 0.0
16/05:00am 16.5 18.1 14.9 90 0.9 CALM 0 0 0 0 1018.9 - 0.0
16/04:30am 16.3 17.1 14.8 91 0.9 S 4 6 2 3 1019.2 - 0.0
16/04:00am 16.0 17.4 14.5 91 0.9 CALM 0 0 0 0 1019.5 - 0.0
16/03:30am 15.6 17.0 14.3 92 0.7 CALM 0 0 0 0 1019.8 - 0.0
16/03:11am 15.4 16.8 14.3 93 0.6 CALM 0 0 0 0 1019.9 - 0.0
16/03:00am 15.2 16.5 14.1 93 0.6 CALM 0 0 0 0 1020.0 - 0.0
16/02:30am 14.9 16.1 13.8 93 0.6 CALM 0 6 0 3 1020.4 - 0.0
16/02:00am 14.6 14.2 13.1 91 0.8 ENE 7 9 4 5 1020.8 - 0.0
16/01:30am 15.3 15.1 13.7 90 0.9 NE 7 9 4 5 1021.1 - 0.0
16/01:00am 15.8 15.5 14.3 91 0.8 NE 9 11 5 6 1021.7 - 0.0
16/12:30am 15.1 14.9 13.6 91 0.8 ENE 7 9 4 5 1021.9 - 0.0
16/12:00am 15.4 15.2 13.6 89 1.0 ENE 7 9 4 5 1022.3 - 0.0
 
Date/Time
EDT
Temp
°C
App
Temp
°C
Dew
Point
°C
Rel
Hum
%
Delta-T
°C
Wind Press
QNH
hPa
Press
MSL
hPa
Rain since
9am
mm
Dir  Spd
km/h
Gust
km/h
Spd
kts
Gust
kts
15/11:30pm 16.1 16.1 14.1 88 1.1 ENE 7 9 4 5 1022.4 - 0.0
15/11:00pm 16.1 16.0 13.9 87 1.2 ENE 7 11 4 6 1022.8 - 0.0
15/10:30pm 16.3 15.9 14.0 86 1.3 E 9 11 5 6 1023.1 - 0.0
15/10:00pm 16.4 15.9 13.9 85 1.4 ESE 9 13 5 7 1023.4 - 0.0
15/09:30pm 16.5 15.9 13.6 83 1.6 ESE 9 13 5 7 1023.3 - 0.0
15/09:00pm 17.2 15.6 13.9 81 1.9 E 15 17 8 9 1022.9 - 0.0
15/08:30pm 17.4 15.3 13.7 79 2.1 ESE 17 20 9 11 1022.9 - 0.0
15/08:00pm 17.8 15.2 13.7 77 2.3 ESE 20 24 11 13 1022.6 - 0.0
15/07:30pm 18.5 15.1 13.6 73 2.8 ESE 24 28 13 15 1022.3 - 0.0
15/07:00pm 19.1 15.3 13.7 71 3.1 ESE 26 32 14 17 1022.2 - 0.0
15/06:30pm 19.4 15.8 13.1 67 3.6 ESE 24 33 13 18 1022.2 - 0.0
15/06:00pm 20.9 17.4 14.5 67 3.7 ESE 26 32 14 17 1021.9 - 0.0
15/05:30pm 21.1 17.4 13.8 63 4.2 ESE 26 32 14 17 1021.9 - 0.0
15/05:00pm 22.0 18.3 13.9 60 4.7 ESE 26 35 14 19 1021.7 - 0.0
15/04:30pm 22.3 18.6 13.9 59 4.9 ESE 26 35 14 19 1021.8 - 0.0
15/04:00pm 22.0 18.6 13.6 59 4.8 ESE 24 32 13 17 1022.0 - 0.0
15/03:30pm 22.6 19.3 13.9 58 5.1 ESE 24 32 13 17 1022.2 - 0.0
15/03:00pm 22.6 19.8 14.2 59 4.9 ESE 22 32 12 17 1022.4 - 0.0
15/02:30pm 23.7 20.6 14.4 56 5.5 ESE 24 35 13 19 1022.6 - 0.0
15/02:00pm 23.1 20.5 13.8 55 5.4 ESE 20 28 11 15 1022.7 - 0.0
15/01:30pm 23.0 19.9 13.5 55 5.5 E 22 35 12 19 1022.9 - 0.0
15/01:00pm 23.5 22.0 13.1 52 6.0 ENE 13 24 7 13 1023.1 - 0.0
15/12:30pm 23.4 23.1 13.3 53 5.8 NNE 7 13 4 7 1023.5 - 0.0
15/12:00pm 22.3 21.6 12.0 52 5.8 WNW 7 11 4 6 1023.9 - 0.0
15/11:30am 21.8 20.8 12.4 55 5.3 WSW 9 15 5 8 1024.1 - 0.0
15/11:00am 20.9 20.2 13.1 61 4.4 SE 9 13 5 7 1024.3 - 0.0
15/10:30am 19.9 19.4 12.7 63 4.1 SSW 7 13 4 7 1024.2 - 0.0
15/10:00am 19.5 18.9 13.4 68 3.5 SW 9 15 5 8 1024.3 - 0.0
15/09:30am 18.2 17.0 12.9 71 3.0 WSW 11 17 6 9 1024.3 - 0.0
15/09:00am 17.2 15.7 13.1 77 2.3 W 13 17 7 9 1024.5 - 0.0
15/08:30am 15.6 14.0 12.7 83 1.6 WNW 13 15 7 8 1024.4 - 0.0
15/08:00am 13.8 12.8 12.2 90 0.9 WNW 9 11 5 6 1024.3 - 0.0
15/07:30am 12.5 11.3 11.6 94 0.5 NW 9 11 5 6 1024.1 - 0.0
15/07:00am 11.4 9.5 10.5 94 0.5 NW 11 13 6 7 1023.8 - 0.0
15/06:30am 11.3 9.8 10.4 94 0.5 NNW 9 13 5 7 1023.5 - 0.0
15/06:00am 12.5 11.6 11.4 93 0.6 WNW 7 9 4 5 1023.1 - 0.0
15/05:30am 13.0 12.2 11.6 91 0.7 NW 7 11 4 6 1022.9 - 0.0
15/05:00am 13.3 12.1 11.5 89 1.0 WNW 9 13 5 7 1022.8 - 0.0
15/04:30am 13.8 12.8 12.2 90 0.9 W 9 11 5 6 1022.8 - 0.0
15/04:00am 14.3 13.3 12.2 87 1.1 W 9 11 5 6 1022.8 - 0.0
15/03:30am 15.1 13.8 12.4 84 1.5 W 11 17 6 9 1022.7 - 0.0
15/03:00am 15.2 13.1 12.5 84 1.5 W 15 20 8 11 1022.7 - 0.0
15/02:30am 15.0 13.3 12.3 84 1.5 W 13 17 7 9 1022.7 - 0.0
15/02:00am 14.7 13.2 12.0 84 1.5 WNW 11 15 6 8 1022.8 - 0.0
15/01:30am 14.5 13.0 11.8 84 1.5 NW 11 13 6 7 1023.0 - 0.0
15/01:00am 14.3 12.1 10.9 80 1.8 NW 13 15 7 8 1023.0 - 0.0
15/12:30am 15.3 13.6 11.3 77 2.1 NNW 11 15 6 8 1022.8 - 0.0
15/12:00am 16.4 15.4 12.4 77 2.2 NW 9 11 5 6 1022.9 - 0.0
 
Date/Time
EDT
Temp
°C
App
Temp
°C
Dew
Point
°C
Rel
Hum
%
Delta-T
°C
Wind Press
QNH
hPa
Press
MSL
hPa
Rain since
9am
mm
Dir  Spd
km/h
Gust
km/h
Spd
kts
Gust
kts
14/11:30pm 16.4 15.8 12.2 76 2.3 N 7 9 4 5 1022.8 - 0.0
14/11:00pm 15.7 15.0 12.1 79 2.0 N 7 9 4 5 1022.6 - 0.0
14/10:30pm 17.8 17.5 11.4 66 3.5 ESE 4 7 2 4 1022.4 - 0.0
14/10:00pm 18.4 17.3 10.5 60 4.2 NNE 7 15 4 8 1022.2 - 0.0
14/09:30pm 17.3 16.3 10.4 64 3.7 SE 6 9 3 5 1021.7 - 0.0
14/09:00pm 18.0 16.1 10.6 62 4.0 SE 11 17 6 9 1021.1 - 0.0
14/08:30pm 20.8 18.4 8.8 46 6.3 WNW 11 15 6 8 1020.5 - 0.0
14/08:00pm 21.4 19.5 9.0 45 6.6 WSW 9 13 5 7 1020.0 - 0.0
14/07:30pm 22.5 19.2 8.2 40 7.5 WSW 15 20 8 11 1019.5 - 0.0
14/07:00pm 23.5 19.9 8.4 38 8.0 WSW 17 22 9 12 1019.1 - 0.0
14/06:30pm 23.8 20.2 8.2 37 8.3 WSW 17 22 9 12 1018.7 - 0.0
14/06:00pm 24.3 21.4 8.3 36 8.5 SSW 13 24 7 13 1018.5 - 0.0
14/05:30pm 24.2 20.9 8.2 36 8.5 WSW 15 20 8 11 1018.2 - 0.0
14/05:00pm 24.3 20.1 8.3 36 8.5 WSW 20 33 11 18 1018.1 - 0.0
14/04:30pm 24.2 19.3 8.6 37 8.4 WSW 24 39 13 21 1018.0 - 0.0
14/04:00pm 23.6 18.4 8.8 39 7.9 WSW 26 33 14 18 1017.9 - 0.0
14/03:30pm 23.4 18.9 8.7 39 7.9 WSW 22 32 12 17 1018.0 - 0.0

Other Formats:

Comma delimited format used in spreadsheet applications
http://www.bom.gov.au/fwo/IDV60801/IDV60801.95907.axf

JavaScript Object Notation format (JSON) in row-major order
http://www.bom.gov.au/fwo/IDV60801/IDV60801.95907.json